Time;durP1;ratioP1;P1;durP2;ratioP2;P2;SDS_P1;SDS_P2;PMS_P1;PMS_P2;Temp;Humidity;BMP_temperature;BMP_pressure;BME280_temperature;BME280_humidity;BME280_pressure;Samples;Min_cycle;Max_cycle;Signal;HPM_P1;HPM_P2
2022/09/28 00:01:17;;;;;;;2.45;1.20;;;14.70;43.40;;;;;;5014973;28;20182;-41
2022/09/28 00:03:47;;;;;;;3.22;1.52;;;14.60;43.00;;;;;;5014836;28;20258;-42
2022/09/28 00:06:15;;;;;;;3.15;1.30;;;14.60;43.10;;;;;;5014163;28;20181;-42
2022/09/28 00:08:41;;;;;;;2.63;1.25;;;14.60;43.60;;;;;;5014503;28;20277;-42
2022/09/28 00:11:12;;;;;;;1.83;1.23;;;14.60;43.00;;;;;;5014878;28;20226;-42
2022/09/28 00:13:39;;;;;;;2.38;1.60;;;14.60;43.80;;;;;;5014379;28;20497;-42
2022/09/28 00:16:06;;;;;;;1.50;0.98;;;14.60;42.70;;;;;;5014083;28;20178;-42
2022/09/28 00:18:33;;;;;;;1.60;1.10;;;14.60;42.80;;;;;;5014206;28;20210;-42
2022/09/28 00:21:13;;;;;;;2.38;1.33;;;14.70;43.20;;;;;;5014691;28;20530;-42
2022/09/28 00:26:25;;;;;;;1.65;0.80;;;14.70;43.90;;;;;;5014133;28;20170;-41
2022/09/28 00:28:52;;;;;;;2.20;0.88;;;14.70;43.40;;;;;;5014165;28;20201;-41
2022/09/28 00:31:19;;;;;;;1.90;1.23;;;14.70;43.50;;;;;;5014177;28;20209;-42
2022/09/28 00:33:48;;;;;;;3.15;1.95;;;14.70;43.10;;;;;;5014399;28;20201;-42
2022/09/28 00:36:14;;;;;;;2.13;1.20;;;14.70;42.70;;;;;;5013430;28;20185;-41
2022/09/28 00:38:40;;;;;;;3.33;2.80;;;14.70;42.60;;;;;;5013877;28;20199;-41
2022/09/28 00:41:07;;;;;;;1.87;1.47;;;14.70;42.90;;;;;;5014293;28;20174;-41
2022/09/28 00:43:32;;;;;;;4.18;1.67;;;14.70;43.20;;;;;;4996368;28;20418;-42
2022/09/28 00:46:03;;;;;;;1.93;1.37;;;14.70;43.40;;;;;;5013366;28;20178;-41
2022/09/28 00:48:34;;;;;;;1.40;1.23;;;14.70;43.60;;;;;;4996471;28;20937;-42
2022/09/28 00:51:05;;;;;;;2.05;1.50;;;14.70;43.30;;;;;;5014010;28;20228;-41
2022/09/28 00:53:33;;;;;;;2.70;1.45;;;14.70;43.70;;;;;;5013988;28;20159;-42
2022/09/28 00:56:06;;;;;;;1.80;1.58;;;14.70;43.80;;;;;;5013251;28;20313;-42
2022/09/28 00:58:37;;;;;;;1.70;1.05;;;14.80;43.90;;;;;;5013622;28;20206;-42
2022/09/28 01:01:03;;;;;;;1.73;1.42;;;14.80;44.00;;;;;;5013826;28;20213;-42
2022/09/28 01:03:29;;;;;;;2.40;1.20;;;14.70;43.30;;;;;;5013619;28;20249;-41
2022/09/28 01:05:58;;;;;;;1.67;1.30;;;14.70;43.50;;;;;;4995593;28;20171;-42
2022/09/28 01:08:28;;;;;;;2.17;1.40;;;14.60;43.40;;;;;;5013473;28;20329;-42
2022/09/28 01:10:56;;;;;;;1.80;1.02;;;14.60;43.20;;;;;;5013549;28;20180;-42
2022/09/28 01:13:23;;;;;;;1.63;0.82;;;14.60;43.00;;;;;;5013397;28;20252;-43
2022/09/28 01:16:17;;;;;;;1.30;1.08;;;14.50;43.00;;;;;;4995147;28;20183;-42
2022/09/28 01:19:16;;;;;;;2.17;1.65;;;14.40;42.50;;;;;;4960794;28;20226;-42
2022/09/28 01:21:50;;;;;;;1.95;1.20;;;14.40;42.40;;;;;;5013344;28;20170;-41
2022/09/28 01:24:34;;;;;;;1.60;0.93;;;14.40;43.00;;;;;;5013116;28;20665;-41
2022/09/28 01:27:07;;;;;;;1.50;0.90;;;14.40;43.30;;;;;;5012541;28;20192;-42
2022/09/28 01:29:47;;;;;;;2.03;0.70;;;14.30;43.10;;;;;;5013203;28;20174;-42
2022/09/28 01:32:44;;;;;;;1.73;1.15;;;14.30;43.60;;;;;;5013107;28;20265;-42
2022/09/28 01:35:36;;;;;;;1.58;1.02;;;14.30;43.30;;;;;;5013265;28;20806;-41
2022/09/28 01:38:16;;;;;;;1.48;1.15;;;14.30;43.30;;;;;;5013208;28;20220;-42
2022/09/28 01:40:43;;;;;;;1.65;1.13;;;14.30;43.20;;;;;;5012898;28;20175;-41
2022/09/28 01:43:23;;;;;;;5.78;1.63;;;14.30;43.10;;;;;;5012865;28;20167;-41
2022/09/28 01:45:52;;;;;;;5.88;1.48;;;14.30;43.00;;;;;;5012361;28;20155;-42
2022/09/28 01:48:25;;;;;;;2.25;0.90;;;14.20;42.30;;;;;;5012509;28;20242;-41
2022/09/28 01:50:56;;;;;;;1.40;0.88;;;14.10;42.60;;;;;;5012906;28;20179;-41
2022/09/28 01:53:35;;;;;;;4.00;1.67;;;14.20;43.20;;;;;;5012807;28;20177;-41
2022/09/28 01:56:14;;;;;;;1.80;1.30;;;14.20;43.60;;;;;;5012688;28;20173;-41
2022/09/28 01:58:55;;;;;;;1.30;1.10;;;14.30;43.60;;;;;;5012710;28;20730;-41
2022/09/28 02:01:28;;;;;;;1.20;0.90;;;14.30;43.80;;;;;;5012926;28;20170;-42
2022/09/28 02:04:19;;;;;;;1.60;1.17;;;14.30;44.00;;;;;;5012614;28;20167;-42
2022/09/28 02:06:55;;;;;;;2.20;1.48;;;14.30;44.10;;;;;;5011980;28;20159;-41
2022/09/28 02:09:26;;;;;;;1.75;0.80;;;14.30;44.30;;;;;;5012498;28;20217;-41
2022/09/28 02:12:00;;;;;;;2.65;1.70;;;14.30;44.40;;;;;;5012423;28;20163;-41
2022/09/28 02:14:28;;;;;;;2.00;0.90;;;14.30;44.50;;;;;;5012441;28;20571;-41
2022/09/28 02:16:55;;;;;;;2.80;0.98;;;14.30;44.50;;;;;;5011879;28;20198;-42
2022/09/28 02:19:24;;;;;;;2.13;1.27;;;14.30;44.80;;;;;;5012155;28;20222;-42
2022/09/28 02:22:22;;;;;;;1.50;0.90;;;14.30;45.10;;;;;;5012610;28;20189;-41
2022/09/28 02:25:07;;;;;;;2.05;1.10;;;14.30;45.00;;;;;;5012211;28;20171;-41
2022/09/28 02:27:41;;;;;;;1.40;0.85;;;14.30;45.00;;;;;;5011673;28;20194;-41
2022/09/28 02:30:08;;;;;;;1.88;1.48;;;14.30;45.20;;;;;;5012565;28;20167;-42
2022/09/28 02:32:39;;;;;;;1.73;1.05;;;14.30;45.30;;;;;;5012471;28;20185;-41
2022/09/28 02:35:17;;;;;;;2.00;1.13;;;14.30;45.40;;;;;;5012446;28;20214;-42
2022/09/28 02:37:44;;;;;;;1.73;1.50;;;14.30;45.40;;;;;;5011890;28;20209;-42
2022/09/28 02:40:15;;;;;;;2.22;1.80;;;14.20;45.00;;;;;;5012295;28;20238;-42
2022/09/28 02:43:10;;;;;;;1.95;1.35;;;14.20;45.30;;;;;;5012198;28;20581;-41
2022/09/28 02:45:42;;;;;;;3.13;1.67;;;14.20;45.30;;;;;;4993999;28;20170;-41
2022/09/28 02:48:20;;;;;;;3.00;1.95;;;14.20;45.50;;;;;;5012131;28;20285;-42
2022/09/28 02:51:23;;;;;;;4.78;1.52;;;14.20;45.50;;;;;;4994626;28;20593;-42
2022/09/28 02:54:16;;;;;;;3.45;1.60;;;14.20;45.40;;;;;;5012041;28;20261;-41
2022/09/28 02:56:48;;;;;;;1.70;1.30;;;14.20;45.40;;;;;;5011501;28;20190;-42
2022/09/28 02:59:24;;;;;;;2.67;1.60;;;14.20;45.10;;;;;;5013054;28;20316;-42
2022/09/28 03:02:11;;;;;;;1.85;0.98;;;14.20;44.90;;;;;;5016172;28;20155;-42
2022/09/28 03:05:02;;;;;;;3.15;1.98;;;14.30;45.00;;;;;;5016058;28;20201;-42
2022/09/28 03:07:43;;;;;;;2.30;1.80;;;14.20;44.10;;;;;;5015078;28;20202;-42
2022/09/28 03:10:12;;;;;;;2.95;1.67;;;14.20;44.30;;;;;;5015667;28;20209;-42
2022/09/28 03:12:38;;;;;;;3.03;2.20;;;14.20;44.70;;;;;;5015649;28;20181;-42
2022/09/28 03:15:23;;;;;;;2.30;1.30;;;14.20;44.70;;;;;;5015603;28;20174;-41
2022/09/28 03:17:49;;;;;;;1.90;1.23;;;14.30;44.50;;;;;;5014937;28;20532;-41
2022/09/28 03:20:15;;;;;;;4.10;1.53;;;14.30;44.70;;;;;;5015599;28;20257;-42
2022/09/28 03:22:41;;;;;;;2.75;2.00;;;14.20;44.70;;;;;;5015807;28;20216;-41
2022/09/28 03:25:07;;;;;;;3.58;1.45;;;14.20;45.40;;;;;;5015346;28;20182;-41
2022/09/28 03:27:33;;;;;;;3.35;2.38;;;14.20;44.70;;;;;;5014740;28;20183;-41
2022/09/28 03:29:59;;;;;;;2.43;1.87;;;14.10;44.80;;;;;;5015542;28;20179;-40
2022/09/28 03:32:25;;;;;;;4.13;2.10;;;14.10;44.90;;;;;;5015533;28;20786;-41
2022/09/28 03:34:51;;;;;;;3.53;1.97;;;14.10;44.90;;;;;;4997818;28;20504;-41
2022/09/28 03:37:16;;;;;;;1.93;1.53;;;14.10;44.90;;;;;;5014600;28;20525;-42
2022/09/28 03:39:42;;;;;;;4.90;1.90;;;14.00;44.90;;;;;;5015025;28;20191;-41
2022/09/28 03:42:08;;;;;;;3.70;2.37;;;14.00;45.00;;;;;;5015159;28;20181;-42
2022/09/28 03:44:34;;;;;;;2.30;1.37;;;14.00;45.20;;;;;;4981342;28;20704;-42
2022/09/28 03:47:00;;;;;;;2.38;1.35;;;14.00;45.10;;;;;;5014633;28;20416;-42
2022/09/28 03:49:25;;;;;;;2.47;1.30;;;14.00;45.00;;;;;;5015001;28;20366;-41
2022/09/28 03:51:51;;;;;;;1.70;1.53;;;14.00;45.20;;;;;;5014942;28;20174;-41
2022/09/28 03:54:17;;;;;;;2.50;2.07;;;14.10;45.30;;;;;;5014779;28;20174;-42
2022/09/28 03:56:43;;;;;;;3.97;2.10;;;14.10;45.10;;;;;;5014233;28;20654;-42
2022/09/28 03:59:09;;;;;;;3.73;2.10;;;14.10;44.90;;;;;;5014729;28;20237;-42
2022/09/28 04:01:35;;;;;;;2.77;1.80;;;14.20;44.80;;;;;;5014961;28;20413;-41
2022/09/28 04:04:01;;;;;;;3.93;2.27;;;14.30;45.00;;;;;;5014774;28;20792;-41
2022/09/28 04:06:27;;;;;;;4.17;2.57;;;14.30;45.80;;;;;;5014184;28;20258;-41
2022/09/28 04:08:52;;;;;;;5.00;2.20;;;14.30;45.00;;;;;;5014454;28;20195;-42
2022/09/28 04:11:18;;;;;;;5.07;2.20;;;14.40;45.00;;;;;;5014096;28;20405;-40
2022/09/28 04:13:48;;;;;;;4.17;1.40;;;14.40;45.00;;;;;;5014620;28;20586;-42
2022/09/28 04:16:14;;;;;;;1.92;1.40;;;14.40;45.10;;;;;;5013863;28;20480;-42
2022/09/28 04:18:41;;;;;;;3.03;2.10;;;14.40;45.20;;;;;;5014118;28;20218;-42
2022/09/28 04:21:10;;;;;;;2.50;1.85;;;14.40;45.10;;;;;;5014426;28;20178;-42
2022/09/28 04:23:37;;;;;;;3.50;2.10;;;14.50;45.40;;;;;;5014275;28;20779;-42
2022/09/28 04:26:05;;;;;;;2.22;1.70;;;14.50;45.40;;;;;;5013766;28;20178;-42
2022/09/28 04:31:19;;;;;;;2.70;2.50;;;14.50;45.60;;;;;;5014491;28;20225;-41
2022/09/28 04:33:45;;;;;;;3.33;2.63;;;14.50;45.60;;;;;;5014200;28;20257;-42
2022/09/28 04:36:11;;;;;;;2.30;1.75;;;14.50;45.50;;;;;;5013729;28;20236;-42
2022/09/28 04:38:38;;;;;;;2.80;2.07;;;14.50;45.60;;;;;;5013830;28;20690;-42
2022/09/28 04:41:04;;;;;;;3.38;2.22;;;14.50;45.50;;;;;;5014038;28;20743;-42
2022/09/28 04:43:31;;;;;;;3.83;2.60;;;14.50;45.50;;;;;;5013941;28;20761;-42
2022/09/28 04:46:01;;;;;;;4.68;2.60;;;14.50;45.50;;;;;;5013327;28;20202;-41
2022/09/28 04:48:28;;;;;;;4.07;3.40;;;14.40;45.40;;;;;;5013752;28;20226;-42
2022/09/28 04:50:58;;;;;;;4.60;3.70;;;14.40;46.10;;;;;;5013842;28;20203;-42
2022/09/28 04:53:25;;;;;;;6.65;4.32;;;14.40;45.40;;;;;;5013990;28;20181;-42
2022/09/28 04:55:55;;;;;;;5.15;3.90;;;14.30;45.50;;;;;;5013105;28;20185;-42
2022/09/28 04:58:22;;;;;;;7.53;5.50;;;14.30;45.40;;;;;;5013808;28;20206;-41
2022/09/28 05:00:50;;;;;;;6.30;4.35;;;14.30;45.50;;;;;;5013691;28;20293;-42
2022/09/28 05:03:16;;;;;;;7.65;5.00;;;14.30;45.50;;;;;;5013523;28;20266;-41
2022/09/28 05:05:46;;;;;;;8.48;6.10;;;14.20;45.30;;;;;;5012928;28;20171;-42
2022/09/28 05:08:12;;;;;;;7.90;5.53;;;14.20;45.50;;;;;;5013104;28;20192;-41
2022/09/28 05:10:39;;;;;;;8.07;6.05;;;14.20;45.30;;;;;;5013388;28;20639;-42
2022/09/28 05:13:09;;;;;;;8.73;4.57;;;14.10;45.50;;;;;;5013460;28;20578;-41
2022/09/28 05:15:36;;;;;;;9.75;6.00;;;14.10;45.60;;;;;;5013122;28;20167;-41
2022/09/28 05:18:02;;;;;;;8.15;5.10;;;14.10;45.60;;;;;;5013177;28;20209;-41
2022/09/28 05:20:41;;;;;;;7.38;4.43;;;14.10;45.70;;;;;;4995945;28;20174;-41
2022/09/28 05:23:10;;;;;;;10.15;5.07;;;14.10;45.60;;;;;;5012352;28;20170;-41
2022/09/28 05:25:35;;;;;;;7.07;4.25;;;14.10;45.40;;;;;;5012564;28;20179;-41
2022/09/28 05:28:02;;;;;;;7.83;5.53;;;14.10;45.60;;;;;;5013260;28;20213;-41
2022/09/28 05:30:28;;;;;;;5.97;4.45;;;14.20;45.70;;;;;;5013116;28;20409;-41
2022/09/28 05:32:53;;;;;;;8.27;5.53;;;14.10;45.70;;;;;;5013103;28;20181;-41
2022/09/28 05:35:19;;;;;;;6.67;4.67;;;14.10;45.60;;;;;;5012912;28;20409;-41
2022/09/28 05:37:46;;;;;;;8.13;5.37;;;14.10;45.70;;;;;;5012410;28;20405;-41
2022/09/28 05:40:12;;;;;;;9.75;6.28;;;14.20;45.80;;;;;;5012793;28;20441;-41
2022/09/28 05:42:39;;;;;;;9.15;5.90;;;14.20;45.90;;;;;;5013065;28;20170;-41
2022/09/28 05:45:05;;;;;;;8.73;5.80;;;14.10;46.00;;;;;;5013008;28;20250;-41
2022/09/28 05:47:39;;;;;;;5.65;5.10;;;14.10;46.60;;;;;;5012138;28;20294;-41
2022/09/28 05:50:07;;;;;;;6.38;4.93;;;14.10;45.90;;;;;;5012842;28;20618;-41
2022/09/28 05:52:33;;;;;;;9.05;6.55;;;14.10;45.70;;;;;;5012733;28;20186;-41
2022/09/28 05:54:59;;;;;;;9.73;6.60;;;14.20;45.80;;;;;;5012806;28;20221;-41
2022/09/28 05:57:25;;;;;;;11.32;6.55;;;14.20;45.60;;;;;;5012058;28;20467;-41
2022/09/28 05:59:51;;;;;;;11.63;6.43;;;14.20;45.60;;;;;;5012536;28;20206;-42
2022/09/28 06:02:17;;;;;;;10.27;8.00;;;14.30;45.70;;;;;;5012556;28;20194;-41
2022/09/28 06:04:42;;;;;;;10.23;7.43;;;14.30;45.70;;;;;;5012550;28;20573;-41
2022/09/28 06:07:08;;;;;;;9.80;7.00;;;14.30;45.70;;;;;;5012064;28;20196;-41
2022/09/28 06:09:34;;;;;;;13.60;8.00;;;14.40;45.40;;;;;;5012636;28;20642;-40
2022/09/28 06:12:00;;;;;;;10.90;7.73;;;14.40;45.20;;;;;;5012710;28;20181;-41
2022/09/28 06:14:25;;;;;;;13.90;8.77;;;14.50;45.10;;;;;;5012670;28;20358;-42
2022/09/28 06:16:51;;;;;;;11.40;8.73;;;14.40;44.60;;;;;;5011901;28;20402;-41
2022/09/28 06:19:17;;;;;;;10.47;8.50;;;14.40;44.70;;;;;;5012038;28;20693;-41
2022/09/28 06:21:43;;;;;;;12.83;8.87;;;14.40;44.90;;;;;;5012387;28;20177;-41
2022/09/28 06:24:08;;;;;;;10.77;8.00;;;14.40;45.00;;;;;;5012403;28;20398;-42
2022/09/28 06:26:34;;;;;;;12.90;9.27;;;14.40;45.00;;;;;;5011612;28;20178;-42
2022/09/28 06:29:02;;;;;;;9.83;8.03;;;14.40;44.50;;;;;;5012221;28;20195;-41
2022/09/28 06:31:29;;;;;;;11.15;8.77;;;14.40;44.60;;;;;;5012359;28;20179;-42
2022/09/28 06:33:56;;;;;;;11.43;7.93;;;14.40;44.70;;;;;;5014469;28;20730;-41
2022/09/28 06:36:22;;;;;;;9.90;8.15;;;14.50;44.90;;;;;;5015739;28;20171;-41
2022/09/28 06:38:47;;;;;;;10.63;8.93;;;14.50;45.00;;;;;;5016140;28;20294;-42
2022/09/28 06:41:14;;;;;;;15.67;10.97;;;14.50;45.00;;;;;;4998740;28;20186;-42
2022/09/28 06:43:40;;;;;;;11.25;9.65;;;14.50;45.00;;;;;;5016085;28;20405;-41
2022/09/28 06:46:08;;;;;;;9.95;8.95;;;14.50;44.60;;;;;;5015963;28;20202;-42
2022/09/28 06:48:34;;;;;;;13.30;9.60;;;14.40;44.30;;;;;;5016048;28;20245;-41
2022/09/28 06:51:00;;;;;;;10.53;8.90;;;14.50;44.70;;;;;;5016034;28;20175;-41
2022/09/28 06:53:27;;;;;;;13.57;9.60;;;14.50;44.70;;;;;;5015876;28;20491;-41
2022/09/28 06:55:54;;;;;;;11.98;9.00;;;14.50;44.70;;;;;;5015489;28;20559;-42
2022/09/28 06:58:21;;;;;;;10.05;8.75;;;14.60;44.80;;;;;;5015981;28;20275;-40
2022/09/28 07:00:50;;;;;;;10.90;9.52;;;14.60;44.90;;;;;;5015991;28;20174;-41
2022/09/28 07:03:18;;;;;;;11.65;10.35;;;14.70;44.80;;;;;;5016064;28;20701;-41
2022/09/28 07:05:47;;;;;;;10.73;9.57;;;14.70;44.80;;;;;;5015194;28;20174;-41
2022/09/28 07:08:14;;;;;;;9.70;8.55;;;14.70;44.50;;;;;;5015900;28;20554;-41
2022/09/28 07:10:45;;;;;;;10.50;8.10;;;14.70;44.40;;;;;;5015977;28;20178;-41
2022/09/28 07:13:12;;;;;;;12.43;8.23;;;14.70;44.30;;;;;;5015705;28;20178;-40
2022/09/28 07:15:39;;;;;;;10.05;8.00;;;14.70;44.40;;;;;;4997486;28;20175;-41
2022/09/28 07:18:06;;;;;;;11.82;6.63;;;14.70;44.30;;;;;;5015237;28;20214;-41
2022/09/28 07:20:33;;;;;;;7.72;6.75;;;14.70;44.30;;;;;;5015440;28;20174;-41
2022/09/28 07:23:02;;;;;;;8.80;7.38;;;14.70;44.30;;;;;;5015491;28;20577;-41
2022/09/28 07:25:29;;;;;;;7.57;6.85;;;14.80;44.20;;;;;;5015476;28;20167;-41
2022/09/28 07:27:59;;;;;;;8.88;6.72;;;14.70;44.30;;;;;;5014954;28;20207;-41
2022/09/28 07:30:27;;;;;;;7.22;6.47;;;14.70;44.50;;;;;;5015318;28;20171;-41
2022/09/28 07:32:53;;;;;;;8.05;7.25;;;14.70;44.30;;;;;;5015377;28;20198;-41
2022/09/28 07:35:19;;;;;;;6.68;5.97;;;14.70;44.40;;;;;;5015159;28;20167;-41
2022/09/28 07:37:45;;;;;;;8.33;5.90;;;14.70;44.50;;;;;;5014680;28;20277;-40
2022/09/28 07:42:55;;;;;;;7.45;6.68;;;14.80;44.70;;;;;;5015488;28;20474;-41
2022/09/28 07:45:24;;;;;;;8.27;6.50;;;14.80;44.60;;;;;;5014270;28;20258;-40
2022/09/28 07:47:54;;;;;;;8.15;6.38;;;14.90;44.50;;;;;;5014564;28;20433;-41
2022/09/28 07:50:21;;;;;;;9.80;7.47;;;14.90;44.50;;;;;;5015342;28;20221;-41
2022/09/28 07:52:48;;;;;;;7.35;6.38;;;14.90;44.80;;;;;;5014976;28;20202;-41
2022/09/28 07:55:14;;;;;;;9.70;7.40;;;14.90;44.80;;;;;;5015004;28;20205;-41
2022/09/28 07:57:40;;;;;;;8.70;7.70;;;15.00;44.70;;;;;;5014365;28;20701;-41
2022/09/28 08:00:07;;;;;;;8.48;7.32;;;15.00;44.70;;;;;;5014586;28;20210;-41
2022/09/28 08:02:34;;;;;;;8.40;6.93;;;14.90;44.70;;;;;;5015063;28;20183;-41
2022/09/28 08:05:01;;;;;;;8.32;6.88;;;14.90;45.00;;;;;;4997265;28;20225;-41
2022/09/28 08:07:26;;;;;;;7.70;6.90;;;15.00;45.00;;;;;;5013958;28;20265;-41
2022/09/28 08:09:52;;;;;;;11.10;7.10;;;15.00;45.10;;;;;;5014687;28;20253;-41
2022/09/28 08:12:19;;;;;;;7.77;6.67;;;15.00;45.10;;;;;;5014649;28;20253;-41
2022/09/28 08:14:46;;;;;;;10.90;7.90;;;15.00;45.20;;;;;;5014773;28;20182;-41
2022/09/28 08:17:11;;;;;;;8.30;6.80;;;14.90;45.60;;;;;;5013879;28;20253;-41
2022/09/28 08:22:21;;;;;;;7.13;6.15;;;14.90;45.60;;;;;;5014658;28;20178;-41
2022/09/28 08:24:47;;;;;;;10.90;8.13;;;14.90;45.70;;;;;;5014370;28;20175;-41
2022/09/28 08:27:18;;;;;;;8.35;7.50;;;15.00;45.80;;;;;;5013701;28;20542;-41
2022/09/28 08:29:43;;;;;;;7.68;6.88;;;15.00;45.80;;;;;;5014525;28;20329;-41
2022/09/28 08:32:09;;;;;;;7.50;6.67;;;15.00;45.80;;;;;;5014354;28;20257;-41
2022/09/28 08:34:37;;;;;;;8.60;7.70;;;15.00;46.00;;;;;;5014271;28;20170;-41
2022/09/28 08:37:04;;;;;;;8.45;6.80;;;15.10;46.20;;;;;;5013710;28;20404;-41
2022/09/28 08:39:29;;;;;;;9.68;6.85;;;15.00;45.80;;;;;;5013841;28;20210;-41
2022/09/28 08:42:32;;;;;;;9.00;7.20;;;15.00;45.70;;;;;;5014002;28;20175;-41
2022/09/28 08:45:06;;;;;;;11.02;8.30;;;15.00;45.90;;;;;;5013896;28;20170;-41
2022/09/28 08:51:30;;;;;;;8.07;7.28;;;15.00;46.10;;;;;;5013935;28;20170;-41
2022/09/28 08:54:24;;;;;;;9.02;6.47;;;14.90;45.60;;;;;;4934081;29;20209;-41
2022/09/28 08:57:02;;;;;;;9.93;6.53;;;14.70;45.80;;;;;;5002469;28;20266;-41
2022/09/28 08:59:46;;;;;;;5.10;4.60;;;14.60;45.80;;;;;;5013560;28;20701;-41
2022/09/28 09:02:24;;;;;;;6.25;4.80;;;14.60;45.80;;;;;;5013792;28;20190;-41
2022/09/28 09:04:51;;;;;;;5.78;5.20;;;14.50;46.30;;;;;;5013588;28;20632;-41
2022/09/28 09:07:38;;;;;;;4.45;4.05;;;14.50;46.50;;;;;;5012998;28;20214;-41
2022/09/28 09:10:04;;;;;;;6.95;5.93;;;14.50;46.10;;;;;;5013594;28;20183;-41
2022/09/28 09:12:47;;;;;;;7.07;6.10;;;14.50;47.00;;;;;;5013619;28;20282;-41
2022/09/28 09:15:13;;;;;;;4.43;4.03;;;14.60;47.10;;;;;;4995831;28;20181;-41
2022/09/28 09:18:14;;;;;;;7.43;4.20;;;14.60;47.10;;;;;;5012837;28;20206;-41
2022/09/28 09:20:42;;;;;;;5.40;2.90;;;14.50;47.20;;;;;;4971436;28;20185;-41
2022/09/28 09:23:19;;;;;;;3.63;3.25;;;14.60;47.60;;;;;;5013464;28;20178;-41
2022/09/28 09:25:57;;;;;;;4.00;2.85;;;14.60;47.90;;;;;;5013073;28;20252;-41
2022/09/28 09:28:45;;;;;;;3.05;2.58;;;14.70;47.40;;;;;;5013099;28;20222;-41
2022/09/28 09:31:13;;;;;;;5.32;2.45;;;14.80;47.30;;;;;;5013098;28;20719;-40
2022/09/28 09:34:12;;;;;;;2.95;1.63;;;14.80;47.50;;;;;;5013202;28;20260;-41
2022/09/28 09:37:03;;;;;;;2.55;2.28;;;14.70;47.30;;;;;;5012621;28;20167;-42
2022/09/28 09:39:57;;;;;;;2.30;2.00;;;14.70;47.40;;;;;;5012904;28;20206;-42
2022/09/28 09:42:55;;;;;;;2.25;2.05;;;14.70;47.40;;;;;;5012945;28;20213;-42
2022/09/28 09:45:35;;;;;;;4.47;2.47;;;14.80;47.30;;;;;;5012936;28;20186;-42
2022/09/28 09:48:06;;;;;;;4.28;2.17;;;14.70;47.30;;;;;;5012887;28;20182;-41
2022/09/28 09:50:43;;;;;;;3.60;2.67;;;14.70;47.60;;;;;;5012771;28;20178;-42
2022/09/28 09:57:02;;;;;;;3.22;2.20;;;14.70;47.70;;;;;;5012641;28;20250;-42
2022/09/28 09:59:35;;;;;;;3.00;2.25;;;14.70;47.90;;;;;;4984778;28;20257;-42
2022/09/28 10:02:20;;;;;;;3.22;1.90;;;14.70;47.90;;;;;;5012699;28;20159;-41
2022/09/28 10:04:48;;;;;;;1.95;1.80;;;14.70;47.90;;;;;;5012659;28;20198;-42
2022/09/28 10:07:28;;;;;;;2.35;1.77;;;14.70;47.90;;;;;;5011756;28;20186;-42
2022/09/28 10:09:57;;;;;;;2.65;2.17;;;14.70;47.90;;;;;;5012466;28;20200;-44
2022/09/28 10:12:24;;;;;;;2.22;1.65;;;14.60;47.90;;;;;;5012794;28;20175;-40
2022/09/28 10:14:49;;;;;;;1.77;1.55;;;14.60;47.90;;;;;;5012576;28;20539;-40
2022/09/28 10:17:25;;;;;;;2.30;1.87;;;14.60;47.90;;;;;;5011948;28;20378;-41
2022/09/28 10:19:52;;;;;;;2.50;1.60;;;14.70;48.10;;;;;;5012346;28;20214;-40
2022/09/28 10:22:21;;;;;;;4.70;2.10;;;14.70;48.10;;;;;;4995005;28;20547;-40
2022/09/28 10:24:50;;;;;;;3.60;2.85;;;14.70;48.20;;;;;;5012645;28;20551;-40
2022/09/28 10:27:20;;;;;;;10.02;2.53;;;14.70;48.40;;;;;;5012075;28;20209;-40
2022/09/28 10:30:02;;;;;;;2.10;1.77;;;14.70;48.50;;;;;;5012889;28;20177;-41
2022/09/28 10:32:43;;;;;;;9.93;3.03;;;14.80;48.50;;;;;;5012747;28;20253;-40
2022/09/28 10:35:18;;;;;;;4.15;2.13;;;14.80;48.60;;;;;;4994916;28;20261;-40
2022/09/28 10:37:49;;;;;;;2.17;1.88;;;14.80;48.60;;;;;;5011725;28;20248;-42
2022/09/28 10:40:29;;;;;;;4.68;2.08;;;14.80;48.60;;;;;;5012252;28;20191;-40
2022/09/28 10:43:19;;;;;;;9.18;2.15;;;14.80;48.60;;;;;;5012263;28;20217;-40
2022/09/28 10:45:45;;;;;;;6.07;2.30;;;14.80;48.70;;;;;;5011833;28;20171;-41
2022/09/28 10:48:21;;;;;;;1.90;1.75;;;14.80;48.60;;;;;;5012173;28;20199;-43
2022/09/28 10:51:06;;;;;;;5.28;2.58;;;14.80;48.50;;;;;;5012399;28;20181;-43
2022/09/28 10:53:35;;;;;;;2.65;2.10;;;14.80;48.60;;;;;;5012109;28;20647;-40
2022/09/28 10:56:22;;;;;;;3.00;2.47;;;14.80;48.70;;;;;;5011719;28;20512;-40
2022/09/28 10:58:47;;;;;;;2.90;1.30;;;14.80;48.70;;;;;;5011681;28;20694;-43
2022/09/28 11:01:20;;;;;;;7.87;1.80;;;14.80;48.90;;;;;;5011932;28;20182;-43
2022/09/28 11:03:58;;;;;;;2.30;1.70;;;14.90;48.90;;;;;;5012078;28;20171;-43
2022/09/28 11:06:39;;;;;;;2.65;2.17;;;15.00;48.90;;;;;;5011563;28;20249;-39
2022/09/28 11:09:21;;;;;;;2.90;2.40;;;15.00;49.00;;;;;;5011864;28;20198;-40
2022/09/28 11:11:47;;;;;;;2.22;2.03;;;15.00;48.90;;;;;;5012047;28;20179;-40
2022/09/28 11:14:32;;;;;;;2.43;2.23;;;15.00;48.90;;;;;;5011953;28;20175;-41
2022/09/28 11:17:23;;;;;;;4.85;2.90;;;15.00;49.10;;;;;;5011496;28;20408;-43
2022/09/28 11:19:49;;;;;;;3.15;2.50;;;14.80;49.70;;;;;;5012147;28;20202;-43
2022/09/28 11:22:45;;;;;;;3.43;2.83;;;14.80;49.40;;;;;;5015519;28;20175;-40
2022/09/28 11:25:16;;;;;;;4.05;2.45;;;14.90;49.40;;;;;;5015529;28;20453;-43
2022/09/28 11:27:54;;;;;;;5.72;2.65;;;14.90;49.10;;;;;;5014728;28;20194;-40
2022/09/28 11:30:27;;;;;;;5.25;3.63;;;14.90;49.10;;;;;;5015500;28;20209;-40
2022/09/28 11:33:06;;;;;;;2.78;2.50;;;14.90;49.20;;;;;;5015705;28;20238;-41
2022/09/28 11:35:41;;;;;;;4.10;2.95;;;14.80;50.40;;;;;;5015363;28;20293;-43
2022/09/28 11:38:33;;;;;;;3.72;3.08;;;14.50;50.60;;;;;;5015300;28;20201;-42
2022/09/28 11:41:14;;;;;;;5.75;4.40;;;14.60;51.10;;;;;;5015318;28;20182;-40
2022/09/28 11:43:42;;;;;;;7.55;4.68;;;14.80;52.10;;;;;;5015105;28;20198;-40
2022/09/28 11:46:21;;;;;;;4.00;2.95;;;15.00;51.70;;;;;;5014815;28;20240;-40
2022/09/28 11:48:53;;;;;;;3.55;3.22;;;15.10;50.90;;;;;;5015564;28;20277;-40
2022/09/28 11:51:35;;;;;;;3.38;3.08;;;15.30;51.70;;;;;;5015266;28;20205;-41
2022/09/28 11:54:13;;;;;;;3.15;2.85;;;15.70;52.50;;;;;;5015011;28;20262;-41
2022/09/28 11:56:48;;;;;;;2.83;2.45;;;15.80;51.50;;;;;;5014378;28;20512;-40
2022/09/28 11:59:44;;;;;;;3.00;2.75;;;15.90;50.40;;;;;;5014691;28;20233;-43
2022/09/28 12:02:24;;;;;;;3.13;2.10;;;15.90;50.10;;;;;;5010961;28;20178;-43
2022/09/28 12:05:06;;;;;;;2.72;2.40;;;15.90;49.20;;;;;;5014908;28;20564;-43
2022/09/28 12:07:55;;;;;;;2.25;2.00;;;15.90;50.20;;;;;;5014131;28;20558;-41
2022/09/28 12:10:28;;;;;;;1.90;1.60;;;15.90;49.10;;;;;;5014725;28;20167;-40
2022/09/28 12:13:01;;;;;;;3.65;1.98;;;15.90;49.40;;;;;;5014725;28;20179;-43
2022/09/28 12:15:41;;;;;;;1.80;1.48;;;16.00;49.00;;;;;;5014733;28;20503;-43
2022/09/28 12:18:18;;;;;;;2.22;1.40;;;15.90;48.20;;;;;;5014509;28;20264;-40
2022/09/28 12:20:50;;;;;;;2.22;1.70;;;15.90;48.30;;;;;;5014712;28;20534;-40
2022/09/28 12:23:25;;;;;;;2.00;1.42;;;15.90;47.70;;;;;;5014598;28;20171;-40
2022/09/28 12:26:00;;;;;;;2.25;2.05;;;15.80;48.40;;;;;;5014491;28;20245;-40
2022/09/28 12:28:35;;;;;;;2.95;2.15;;;15.90;48.50;;;;;;5014249;28;20671;-40
2022/09/28 12:31:24;;;;;;;2.47;1.80;;;15.90;48.40;;;;;;5013830;28;20220;-40
2022/09/28 12:33:51;;;;;;;2.38;2.10;;;15.90;48.30;;;;;;5014407;28;20544;-41
2022/09/28 12:36:27;;;;;;;3.70;2.80;;;16.00;49.00;;;;;;5013615;28;20179;-40
2022/09/28 12:39:12;;;;;;;3.25;2.88;;;16.10;48.90;;;;;;5014096;28;20257;-40
2022/09/28 12:42:30;;;;;;;3.75;2.20;;;16.20;49.30;;;;;;5013985;28;20735;-40
2022/09/28 12:45:02;;;;;;;4.75;2.92;;;16.30;48.80;;;;;;4981282;28;20265;-43
2022/09/28 12:47:57;;;;;;;2.80;2.03;;;16.40;48.50;;;;;;5013412;28;20162;-40
2022/09/28 12:50:36;;;;;;;2.15;1.70;;;16.70;49.40;;;;;;5014142;28;20225;-40
2022/09/28 12:53:20;;;;;;;2.42;1.73;;;16.90;49.50;;;;;;5014019;28;20178;-41
2022/09/28 12:56:13;;;;;;;4.25;1.90;;;17.10;48.20;;;;;;5013268;28;20166;-43
2022/09/28 12:58:49;;;;;;;3.08;1.67;;;17.10;47.10;;;;;;5003244;28;20214;-40
2022/09/28 13:01:52;;;;;;;2.30;2.00;;;17.00;46.40;;;;;;5013908;28;20646;-40
2022/09/28 13:04:37;;;;;;;2.50;1.80;;;16.90;46.00;;;;;;5013866;28;20182;-41
2022/09/28 13:07:21;;;;;;;1.88;1.58;;;16.80;46.50;;;;;;5013046;28;20166;-41
2022/09/28 13:10:12;;;;;;;2.00;1.33;;;16.70;46.50;;;;;;5013584;28;20186;-43
2022/09/28 13:12:58;;;;;;;1.67;1.50;;;16.60;46.40;;;;;;5013457;28;20666;-41
2022/09/28 13:16:06;;;;;;;4.50;1.63;;;16.40;46.30;;;;;;4973280;28;20174;-43
2022/09/28 13:18:58;;;;;;;2.85;1.33;;;16.20;46.30;;;;;;4986530;28;20583;-41
2022/09/28 13:21:55;;;;;;;2.28;1.38;;;16.20;46.70;;;;;;5013606;28;20186;-43
2022/09/28 13:24:26;;;;;;;3.13;1.70;;;16.30;47.50;;;;;;5013335;28;20719;-43
2022/09/28 13:26:55;;;;;;;4.85;1.50;;;16.50;48.20;;;;;;5012721;28;20167;-40
2022/09/28 13:29:22;;;;;;;2.10;1.58;;;16.60;48.60;;;;;;5013096;28;20195;-40
2022/09/28 13:31:57;;;;;;;1.80;1.30;;;16.70;47.30;;;;;;5013102;28;20662;-41
2022/09/28 13:34:30;;;;;;;1.70;1.45;;;16.60;46.40;;;;;;5013143;28;20237;-40